Shurei 2 — JD4209 — position and weather

sailwx.info

Track history (hours):
 
Tides and Currents Weather Stations Pressure Air Temp Water Temp Dewpoint Dewpoint Depression Visibility Wind Speed Wind Dir Waves Ship Positions

Shurei 2

Last reported at 2017-Nov-20 00:30 UTC. Time now 2017-Nov-21 19:13 UTC.
Position N 34°37' E 135°26'.

Length 182 m; draft 6.6 m.

Type: Cargo ship. MMSI: 431010021.

Date/timePositionNaut miles runAvg speedWind from/ knotsBaromVisibWave heightAir tempDewpointWater temp
2017-Nov-20 00:30N 34°37' E 135°26'1 2.6
2017-Nov-20 00:00N 34°38' E 135°24'714.5
2017-Nov-19 23:30N 34°33' E 135°17'1019.3
2017-Nov-19 23:00N 34°26' E 135°09'1020.2
2017-Nov-19 22:30N 34°19' E 135°01'1020.3
2017-Nov-19 22:00N 34°09' E 134°57'1120.0
2017-Nov-19 21:28N 33°58' E 134°56'  
2017-Nov-16 14:16N 33°53' E 134°53'620.8
2017-Nov-16 14:00N 33°59' E 134°55'1020.8
2017-Nov-16 13:30N 34°09' E 134°57'1121.0
2017-Nov-16 13:00N 34°19' E 134°59'1019.9
2017-Nov-16 12:30N 34°27' E 135°07'1020.0
2017-Nov-16 12:00N 34°34' E 135°16'815.4
2017-Nov-16 11:30N 34°38' E 135°24'2 2.5
2017-Nov-16 10:51N 34°37' E 135°26'0 0.0
2017-Nov-16 10:27N 34°37' E 135°26'0 0.0
2017-Nov-16 09:57N 34°37' E 135°26'0 0.0
2017-Nov-16 09:27N 34°37' E 135°26'0 0.0
2017-Nov-16 08:57N 34°37' E 135°26'0 0.0
2017-Nov-16 08:27N 34°37' E 135°26'0 0.0
2017-Nov-16 07:57N 34°37' E 135°26'0 0.0
2017-Nov-16 07:27N 34°37' E 135°26'0 0.0
2017-Nov-16 06:45N 34°37' E 135°26'0 0.0
2017-Nov-16 06:27N 34°37' E 135°26'0 0.0
2017-Nov-16 06:00N 34°37' E 135°26'4 7.2
2017-Nov-16 05:30N 34°37' E 135°21'1019.6
2017-Nov-16 05:00N 34°29' E 135°13'1019.3
2017-Nov-16 04:29N 34°22' E 135°05'817.5
2017-Nov-16 04:00N 34°15' E 134°59'919.2
2017-Nov-16 03:31N 34°06' E 135°00'1019.1
2017-Nov-16 03:00N 33°56' E 134°60'22017.1
2017-Nov-15 14:08N 34°51' E 139°17'419.2
2017-Nov-15 13:56N 34°53' E 139°21'819.4
2017-Nov-15 13:30N 34°58' E 139°30'1019.5
2017-Nov-15 13:00N 35°03' E 139°39'918.0
2017-Nov-15 12:30N 35°11' E 139°45'612.8
2017-Nov-15 12:01N 35°17' E 139°45'714.3
2017-Nov-15 11:30N 35°24' E 139°43'918.7
2017-Nov-15 11:00N 35°30' E 139°51'8 0.5
2017-Nov-14 19:48N 35°37' E 139°47'0 0.0
2017-Nov-14 19:30N 35°37' E 139°47'0 0.0
2017-Nov-14 19:00N 35°37' E 139°47'0 0.0
2017-Nov-14 18:30N 35°37' E 139°47'0 0.0
2017-Nov-14 18:00N 35°37' E 139°47'0 0.0
2017-Nov-13 23:53N 35°37' E 139°47'2 4.3
2017-Nov-13 23:30N 35°36' E 139°47'713.5
2017-Nov-13 23:00N 35°30' E 139°52'816.1
2017-Nov-13 22:30N 35°24' E 139°46'611.5
2017-Nov-13 22:00N 35°18' E 139°45'21610.8
2017-Nov-13 02:01N 34°37' E 135°26'0 0.0
2017-Nov-13 01:31N 34°37' E 135°26'0 0.0
2017-Nov-13 00:55N 34°37' E 135°26'0 0.0
2017-Nov-13 00:31N 34°37' E 135°26'0 0.0
2017-Nov-13 00:01N 34°37' E 135°26'0 0.7
2017-Nov-12 23:30N 34°37' E 135°25'611.7
2017-Nov-12 23:00N 34°35' E 135°19'918.9
2017-Nov-12 22:30N 34°28' E 135°11'919.0
2017-Nov-12 22:00N 34°21' E 135°03'918.2
2017-Nov-12 21:30N 34°13' E 134°59'1019.1
2017-Nov-12 21:00N 34°03' E 134°57'  
Track history (hours):
 
Tides and Currents Weather Stations Pressure Air Temp Water Temp Dewpoint Dewpoint Depression Visibility Wind Speed Wind Dir Waves Ship Positions

Shurei 2

Last reported at 2017-Nov-20 00:30 UTC. Time now 2017-Nov-21 19:13 UTC.
Position N 34°37' E 135°26'.

Length 182 m; draft 6.6 m.

Type: Cargo ship. MMSI: 431010021.

Date/timePositionNaut miles runAvg speedWind from/ knotsBaromVisibWave heightAir tempDewpointWater temp
2017-Nov-20 00:30N 34°37' E 135°26'1 2.6
2017-Nov-20 00:00N 34°38' E 135°24'714.5
2017-Nov-19 23:30N 34°33' E 135°17'1019.3
2017-Nov-19 23:00N 34°26' E 135°09'1020.2
2017-Nov-19 22:30N 34°19' E 135°01'1020.3
2017-Nov-19 22:00N 34°09' E 134°57'1120.0
2017-Nov-19 21:28N 33°58' E 134°56'  
2017-Nov-16 14:16N 33°53' E 134°53'620.8
2017-Nov-16 14:00N 33°59' E 134°55'1020.8
2017-Nov-16 13:30N 34°09' E 134°57'1121.0
2017-Nov-16 13:00N 34°19' E 134°59'1019.9
2017-Nov-16 12:30N 34°27' E 135°07'1020.0
2017-Nov-16 12:00N 34°34' E 135°16'815.4
2017-Nov-16 11:30N 34°38' E 135°24'2 2.5
2017-Nov-16 10:51N 34°37' E 135°26'0 0.0
2017-Nov-16 10:27N 34°37' E 135°26'0 0.0
2017-Nov-16 09:57N 34°37' E 135°26'0 0.0
2017-Nov-16 09:27N 34°37' E 135°26'0 0.0
2017-Nov-16 08:57N 34°37' E 135°26'0 0.0
2017-Nov-16 08:27N 34°37' E 135°26'0 0.0
2017-Nov-16 07:57N 34°37' E 135°26'0 0.0
2017-Nov-16 07:27N 34°37' E 135°26'0 0.0
2017-Nov-16 06:45N 34°37' E 135°26'0 0.0
2017-Nov-16 06:27N 34°37' E 135°26'0 0.0
2017-Nov-16 06:00N 34°37' E 135°26'4 7.2
2017-Nov-16 05:30N 34°37' E 135°21'1019.6
2017-Nov-16 05:00N 34°29' E 135°13'1019.3
2017-Nov-16 04:29N 34°22' E 135°05'817.5
2017-Nov-16 04:00N 34°15' E 134°59'919.2
2017-Nov-16 03:31N 34°06' E 135°00'1019.1
2017-Nov-16 03:00N 33°56' E 134°60'22017.1
2017-Nov-15 14:08N 34°51' E 139°17'419.2
2017-Nov-15 13:56N 34°53' E 139°21'819.4
2017-Nov-15 13:30N 34°58' E 139°30'1019.5
2017-Nov-15 13:00N 35°03' E 139°39'918.0
2017-Nov-15 12:30N 35°11' E 139°45'612.8
2017-Nov-15 12:01N 35°17' E 139°45'714.3
2017-Nov-15 11:30N 35°24' E 139°43'918.7
2017-Nov-15 11:00N 35°30' E 139°51'8 0.5
2017-Nov-14 19:48N 35°37' E 139°47'0 0.0
2017-Nov-14 19:30N 35°37' E 139°47'0 0.0
2017-Nov-14 19:00N 35°37' E 139°47'0 0.0
2017-Nov-14 18:30N 35°37' E 139°47'0 0.0
2017-Nov-14 18:00N 35°37' E 139°47'0 0.0
2017-Nov-13 23:53N 35°37' E 139°47'2 4.3
2017-Nov-13 23:30N 35°36' E 139°47'713.5
2017-Nov-13 23:00N 35°30' E 139°52'816.1
2017-Nov-13 22:30N 35°24' E 139°46'611.5
2017-Nov-13 22:00N 35°18' E 139°45'21610.8
2017-Nov-13 02:01N 34°37' E 135°26'0 0.0
2017-Nov-13 01:31N 34°37' E 135°26'0 0.0
2017-Nov-13 00:55N 34°37' E 135°26'0 0.0
2017-Nov-13 00:31N 34°37' E 135°26'0 0.0
2017-Nov-13 00:01N 34°37' E 135°26'0 0.7
2017-Nov-12 23:30N 34°37' E 135°25'611.7
2017-Nov-12 23:00N 34°35' E 135°19'918.9
2017-Nov-12 22:30N 34°28' E 135°11'919.0
2017-Nov-12 22:00N 34°21' E 135°03'918.2
2017-Nov-12 21:30N 34°13' E 134°59'1019.1
2017-Nov-12 21:00N 34°03' E 134°57'  

Dump ship's entire track history